Time;durP1;ratioP1;P1;durP2;ratioP2;P2;SDS_P1;SDS_P2;PMS_P1;PMS_P2;Temp;Humidity;BMP_temperature;BMP_pressure;BME280_temperature;BME280_humidity;BME280_pressure;Samples;Min_cycle;Max_cycle;Signal;HPM_P1;HPM_P2
2021/01/18 00:00:16;;;;;;;7.57;2.10;;;5.50;85.30;;;;;;5003067;28;20040;-90
2021/01/18 00:02:42;;;;;;;11.70;3.10;;;5.50;85.40;;;;;;5008071;28;20026;-91
2021/01/18 00:05:08;;;;;;;6.32;2.15;;;5.50;85.50;;;;;;5011149;28;21531;-89
2021/01/18 00:07:51;;;;;;;4.80;1.70;;;5.50;85.50;;;;;;5010651;28;20042;-91
2021/01/18 00:10:19;;;;;;;9.65;2.40;;;5.50;85.60;;;;;;4991844;28;20042;-90
2021/01/18 00:12:55;;;;;;;5.75;1.95;;;5.50;86.10;;;;;;5005073;28;20006;-90
2021/01/18 00:15:23;;;;;;;9.68;2.22;;;5.40;85.50;;;;;;4995087;28;20025;-90
2021/01/18 00:17:49;;;;;;;4.43;1.75;;;5.50;85.50;;;;;;5009702;28;20272;-90
2021/01/18 00:20:17;;;;;;;8.70;2.40;;;5.50;85.40;;;;;;5011388;28;20044;-90
2021/01/18 00:22:43;;;;;;;4.45;2.05;;;5.50;85.40;;;;;;5001305;28;20468;-89
2021/01/18 00:25:12;;;;;;;7.53;2.00;;;5.50;85.40;;;;;;5009029;28;20022;-89
2021/01/18 00:27:38;;;;;;;8.52;2.35;;;5.40;85.30;;;;;;5006183;28;20519;-90
2021/01/18 00:30:11;;;;;;;6.03;1.77;;;5.50;86.10;;;;;;5010187;28;20136;-89
2021/01/18 00:32:39;;;;;;;8.63;2.10;;;5.40;85.50;;;;;;5006616;28;20030;-91
2021/01/18 00:35:10;;;;;;;6.75;2.05;;;5.40;85.50;;;;;;4995646;28;20651;-92
2021/01/18 00:37:45;;;;;;;5.93;1.83;;;5.40;85.60;;;;;;5002601;28;20033;-90
2021/01/18 00:40:15;;;;;;;4.55;1.90;;;5.40;85.60;;;;;;4990248;28;20516;-91
2021/01/18 00:42:42;;;;;;;5.03;2.05;;;5.40;85.60;;;;;;4996427;28;20018;-90
2021/01/18 00:45:10;;;;;;;8.05;2.38;;;5.30;85.60;;;;;;5007427;28;20022;-91
2021/01/18 00:47:44;;;;;;;8.68;2.25;;;5.40;85.60;;;;;;5005383;28;20061;-91
2021/01/18 00:50:11;;;;;;;7.75;2.38;;;5.40;85.50;;;;;;5008225;28;20034;-91
2021/01/18 00:52:44;;;;;;;10.25;3.72;;;5.40;85.40;;;;;;5010623;28;20045;-91
2021/01/18 00:55:16;;;;;;;7.72;2.80;;;5.50;85.40;;;;;;5011673;28;20471;-90
2021/01/18 00:57:42;;;;;;;6.40;2.65;;;5.50;85.40;;;;;;5007407;28;20026;-89
2021/01/18 01:00:24;;;;;;;5.20;2.20;;;5.50;85.40;;;;;;4994711;28;20046;-89
2021/01/18 01:02:51;;;;;;;5.05;1.90;;;5.50;85.30;;;;;;5000942;28;20685;-90
2021/01/18 01:05:22;;;;;;;4.63;2.47;;;5.50;85.20;;;;;;5014475;28;20148;-89
2021/01/18 01:07:51;;;;;;;6.22;2.13;;;5.50;85.20;;;;;;4997025;28;20041;-90
2021/01/18 01:10:21;;;;;;;4.70;2.10;;;5.60;85.20;;;;;;5012358;28;20033;-90
2021/01/18 01:12:53;;;;;;;8.63;2.90;;;5.50;85.10;;;;;;5013819;28;20026;-90
2021/01/18 01:15:19;;;;;;;4.03;2.08;;;5.50;85.20;;;;;;5014435;28;20046;-87
2021/01/18 01:17:46;;;;;;;4.80;2.40;;;5.50;85.20;;;;;;5008195;28;20049;-87
2021/01/18 01:20:13;;;;;;;9.23;2.83;;;5.40;85.20;;;;;;5006416;28;20049;-87
2021/01/18 01:22:39;;;;;;;6.63;2.85;;;5.50;85.30;;;;;;5014141;28;20034;-87
2021/01/18 01:25:09;;;;;;;10.25;3.40;;;5.50;85.40;;;;;;5014629;28;20467;-87
2021/01/18 01:27:35;;;;;;;4.03;2.17;;;5.40;85.40;;;;;;5020675;28;20554;-87
2021/01/18 01:30:04;;;;;;;8.15;3.03;;;5.40;85.40;;;;;;5020123;28;20022;-88
2021/01/18 01:32:30;;;;;;;6.28;2.25;;;5.40;85.40;;;;;;5023508;28;20038;-88
2021/01/18 01:34:56;;;;;;;3.28;2.10;;;5.40;85.40;;;;;;5014051;28;20022;-88
2021/01/18 01:37:21;;;;;;;7.30;3.15;;;5.40;85.30;;;;;;5010341;28;20065;-88
2021/01/18 01:39:47;;;;;;;9.45;3.15;;;5.30;85.30;;;;;;4999648;28;20073;-88
2021/01/18 01:42:20;;;;;;;5.38;2.97;;;5.30;85.30;;;;;;5004666;28;20040;-88
2021/01/18 01:44:46;;;;;;;9.32;3.63;;;5.30;85.40;;;;;;5012980;28;20037;-89
2021/01/18 01:47:27;;;;;;;6.78;2.85;;;5.20;85.40;;;;;;5022498;28;20478;-88
2021/01/18 01:49:53;;;;;;;8.50;3.55;;;5.30;85.50;;;;;;5007644;28;20085;-88
2021/01/18 01:52:21;;;;;;;7.03;3.22;;;5.30;85.50;;;;;;5012957;28;20022;-89
2021/01/18 01:54:52;;;;;;;5.28;2.50;;;5.30;85.60;;;;;;5013044;28;20252;-89
2021/01/18 01:57:18;;;;;;;10.02;3.25;;;5.30;85.60;;;;;;5011661;28;20104;-89
2021/01/18 01:59:45;;;;;;;4.63;2.22;;;5.10;85.50;;;;;;5010167;28;20026;-90
2021/01/18 02:02:13;;;;;;;4.70;2.20;;;5.10;85.60;;;;;;5014137;28;20061;-89
2021/01/18 02:04:39;;;;;;;8.25;2.97;;;5.10;85.70;;;;;;5015586;28;20042;-89
2021/01/18 02:07:28;;;;;;;5.78;2.38;;;5.00;85.60;;;;;;5015927;28;20018;-89
2021/01/18 02:09:55;;;;;;;6.43;2.58;;;5.00;85.70;;;;;;5011609;28;20468;-90
2021/01/18 02:12:22;;;;;;;8.52;3.22;;;5.00;85.70;;;;;;4999968;28;20015;-89
2021/01/18 02:15:12;;;;;;;6.93;2.83;;;4.90;85.80;;;;;;5032766;28;20006;-88
2021/01/18 02:17:58;;;;;;;6.53;3.20;;;5.00;85.90;;;;;;5034209;28;20072;-88
2021/01/18 02:21:01;;;;;;;7.38;3.40;;;4.90;85.90;;;;;;5011569;28;20038;-89
2021/01/18 02:24:05;;;;;;;4.55;2.55;;;5.00;85.90;;;;;;5001292;28;20030;-88
2021/01/18 02:26:54;;;;;;;7.95;3.05;;;4.90;85.70;;;;;;5007782;28;20026;-88
2021/01/18 02:29:46;;;;;;;7.88;3.38;;;4.90;85.70;;;;;;5016958;28;20029;-88
2021/01/18 02:32:12;;;;;;;10.00;3.70;;;5.00;85.70;;;;;;5033140;28;20045;-89
2021/01/18 02:35:19;;;;;;;9.38;3.55;;;4.90;85.60;;;;;;5037459;28;20018;-89
2021/01/18 02:38:10;;;;;;;7.53;3.40;;;4.90;85.70;;;;;;5038188;28;20033;-89
2021/01/18 02:40:47;;;;;;;5.53;2.65;;;4.90;85.70;;;;;;5034979;28;21914;-90
2021/01/18 02:43:18;;;;;;;7.60;2.90;;;4.90;86.30;;;;;;5028653;28;20003;-90
2021/01/18 02:45:46;;;;;;;7.05;3.10;;;4.90;85.60;;;;;;5028582;28;20026;-90
2021/01/18 02:48:12;;;;;;;6.30;3.58;;;4.90;85.60;;;;;;5043286;28;20041;-89
2021/01/18 02:50:38;;;;;;;7.60;3.25;;;4.90;85.70;;;;;;5029386;28;20026;-89
2021/01/18 02:53:05;;;;;;;6.10;2.90;;;4.80;85.70;;;;;;5012941;28;20026;-89
2021/01/18 02:55:30;;;;;;;6.68;3.10;;;4.80;85.70;;;;;;5004134;28;20018;-89
2021/01/18 02:58:04;;;;;;;7.70;3.53;;;4.80;85.60;;;;;;5014377;28;20032;-89
2021/01/18 03:00:40;;;;;;;9.82;4.03;;;4.90;85.70;;;;;;5011414;28;20041;-89
2021/01/18 03:03:18;;;;;;;8.65;4.00;;;4.80;85.70;;;;;;5002967;28;20203;-90
2021/01/18 03:05:59;;;;;;;7.35;3.70;;;4.80;85.80;;;;;;5002608;28;20026;-89
2021/01/18 03:08:31;;;;;;;5.43;2.80;;;4.80;85.80;;;;;;5014852;28;20061;-90
2021/01/18 03:11:07;;;;;;;9.18;3.88;;;4.90;85.80;;;;;;5006043;28;20060;-89
2021/01/18 03:14:05;;;;;;;8.70;3.80;;;4.80;85.80;;;;;;5014493;28;20046;-91
2021/01/18 03:16:39;;;;;;;6.05;3.63;;;4.80;85.80;;;;;;5030165;28;20041;-91
2021/01/18 03:19:06;;;;;;;7.47;3.70;;;4.70;85.80;;;;;;5014140;28;20034;-90
2021/01/18 03:21:32;;;;;;;9.68;3.35;;;4.70;85.80;;;;;;5013348;28;20044;-91
2021/01/18 03:23:58;;;;;;;9.20;4.00;;;4.70;85.90;;;;;;5010295;28;20022;-90
2021/01/18 03:26:25;;;;;;;10.20;4.85;;;4.60;85.80;;;;;;4994379;28;20192;-88
2021/01/18 03:28:52;;;;;;;7.00;3.72;;;4.60;85.90;;;;;;5003253;28;20527;-89
2021/01/18 03:31:18;;;;;;;7.90;3.70;;;4.60;85.90;;;;;;5010329;28;20088;-88
2021/01/18 03:33:43;;;;;;;8.30;4.30;;;4.50;85.90;;;;;;5011861;28;20053;-88
2021/01/18 03:36:09;;;;;;;7.80;3.38;;;4.50;86.00;;;;;;5011635;28;20021;-91
2021/01/18 03:38:35;;;;;;;7.50;3.97;;;4.50;86.00;;;;;;5011103;28;20105;-88
2021/01/18 03:41:02;;;;;;;7.75;3.63;;;4.50;86.00;;;;;;5008688;28;20403;-88
2021/01/18 03:43:27;;;;;;;10.82;4.63;;;4.40;86.10;;;;;;5004597;28;20038;-88
2021/01/18 03:45:53;;;;;;;8.07;4.03;;;4.40;86.10;;;;;;5034679;28;20072;-87
2021/01/18 03:48:19;;;;;;;8.45;3.75;;;4.40;86.20;;;;;;5007722;28;20551;-88
2021/01/18 03:50:45;;;;;;;8.93;4.00;;;4.30;86.10;;;;;;5008830;28;20033;-87
2021/01/18 03:53:11;;;;;;;8.45;4.57;;;4.40;86.20;;;;;;5008417;28;20539;-88
2021/01/18 03:55:38;;;;;;;5.47;3.15;;;4.30;86.20;;;;;;5005287;28;20088;-88
2021/01/18 03:58:03;;;;;;;9.27;4.20;;;4.30;86.30;;;;;;5011349;28;20241;-88
2021/01/18 04:00:31;;;;;;;8.88;5.05;;;4.30;86.30;;;;;;5010594;28;20048;-88
2021/01/18 04:02:58;;;;;;;8.70;4.05;;;4.20;86.40;;;;;;5009208;28;20033;-88
2021/01/18 04:05:24;;;;;;;8.95;4.30;;;4.20;86.50;;;;;;5011081;28;20054;-87
2021/01/18 04:07:51;;;;;;;9.52;4.07;;;4.20;86.40;;;;;;5009901;28;20029;-87
2021/01/18 04:10:22;;;;;;;8.93;4.65;;;4.20;87.00;;;;;;5010904;28;20045;-87
2021/01/18 04:12:50;;;;;;;7.82;3.63;;;4.20;86.50;;;;;;5004742;28;20021;-87
2021/01/18 04:15:18;;;;;;;16.15;6.80;;;4.20;86.50;;;;;;5010355;28;20034;-87
2021/01/18 04:17:46;;;;;;;11.02;4.68;;;4.20;86.50;;;;;;5011445;28;20025;-88
2021/01/18 04:20:13;;;;;;;6.78;4.00;;;4.20;86.60;;;;;;5012334;28;20093;-88
2021/01/18 04:22:57;;;;;;;10.07;4.45;;;4.20;86.60;;;;;;5012449;28;20037;-88
2021/01/18 04:25:25;;;;;;;9.73;4.30;;;4.20;86.80;;;;;;5011833;28;20030;-87
2021/01/18 04:27:57;;;;;;;9.80;4.28;;;4.10;86.80;;;;;;5014689;28;20022;-87
2021/01/18 04:30:24;;;;;;;6.75;3.50;;;4.20;86.90;;;;;;5008397;28;20042;-87
2021/01/18 04:32:58;;;;;;;6.05;3.20;;;4.20;86.80;;;;;;5012112;28;20033;-87
2021/01/18 04:35:24;;;;;;;7.90;4.35;;;4.20;86.80;;;;;;5010865;28;20030;-87
2021/01/18 04:37:51;;;;;;;6.63;3.88;;;4.20;86.70;;;;;;5013233;28;20014;-86
2021/01/18 04:40:18;;;;;;;8.43;4.28;;;4.20;86.70;;;;;;5022535;28;20029;-86
2021/01/18 04:42:44;;;;;;;7.45;3.70;;;4.20;86.60;;;;;;5030370;28;20026;-87
2021/01/18 04:45:13;;;;;;;11.60;5.78;;;4.20;86.60;;;;;;5028555;28;20171;-87
2021/01/18 04:47:43;;;;;;;11.90;4.97;;;4.20;86.80;;;;;;5023741;28;20021;-86
2021/01/18 04:50:10;;;;;;;6.80;3.50;;;4.20;86.90;;;;;;5033097;28;20038;-90
2021/01/18 04:52:45;;;;;;;10.75;5.05;;;4.20;86.80;;;;;;5034217;28;20014;-89
2021/01/18 04:55:31;;;;;;;9.07;4.47;;;4.20;86.90;;;;;;5035551;28;20030;-90
2021/01/18 04:58:05;;;;;;;11.68;5.25;;;4.30;87.00;;;;;;5033772;28;20030;-90
2021/01/18 05:00:35;;;;;;;14.05;5.32;;;4.20;86.90;;;;;;5028917;28;20042;-89
2021/01/18 05:03:09;;;;;;;7.40;4.03;;;4.20;87.00;;;;;;5014473;28;20010;-90
2021/01/18 05:05:53;;;;;;;12.45;5.72;;;4.30;87.00;;;;;;5031136;28;20061;-90
2021/01/18 05:08:57;;;;;;;8.15;4.43;;;4.40;87.10;;;;;;5031881;28;20033;-90
2021/01/18 05:11:22;;;;;;;11.77;5.32;;;4.30;87.00;;;;;;5023271;28;20069;-90
2021/01/18 05:13:49;;;;;;;11.32;5.63;;;4.40;87.40;;;;;;5025302;28;20042;-87
2021/01/18 05:16:15;;;;;;;13.68;5.53;;;4.40;87.00;;;;;;5005921;28;20033;-88
2021/01/18 05:18:43;;;;;;;11.85;5.60;;;4.40;87.00;;;;;;5011600;28;20022;-87
2021/01/18 05:21:11;;;;;;;7.90;4.68;;;4.40;87.00;;;;;;5006364;28;20030;-87
2021/01/18 05:23:40;;;;;;;11.52;4.20;;;4.50;86.90;;;;;;4998622;28;20037;-88
2021/01/18 05:26:20;;;;;;;10.32;5.43;;;4.60;86.90;;;;;;5009333;28;20174;-88
2021/01/18 05:28:47;;;;;;;8.90;4.93;;;4.60;86.90;;;;;;5000473;28;20476;-87
2021/01/18 05:31:28;;;;;;;9.27;4.35;;;4.50;86.80;;;;;;5012790;28;20119;-88
2021/01/18 05:33:54;;;;;;;7.28;3.92;;;4.60;87.00;;;;;;5010412;28;20313;-88
2021/01/18 05:36:35;;;;;;;13.35;6.00;;;4.60;86.80;;;;;;5010880;28;20033;-88
2021/01/18 05:39:16;;;;;;;11.07;5.40;;;4.60;86.90;;;;;;5016687;28;20018;-89
2021/01/18 05:41:47;;;;;;;10.82;4.63;;;4.60;86.90;;;;;;5019528;28;20492;-89
2021/01/18 05:44:13;;;;;;;14.63;6.63;;;4.70;86.90;;;;;;5022004;28;20022;-91
2021/01/18 05:46:42;;;;;;;11.82;5.95;;;4.60;86.80;;;;;;5011690;28;20543;-90
2021/01/18 05:49:18;;;;;;;12.43;6.15;;;4.70;86.80;;;;;;5013913;28;20058;-91
2021/01/18 05:51:51;;;;;;;10.52;5.40;;;4.70;86.80;;;;;;5008790;28;20026;-90
2021/01/18 05:54:22;;;;;;;11.52;6.15;;;4.70;86.70;;;;;;5026477;28;20040;-90
2021/01/18 05:56:48;;;;;;;9.85;4.70;;;4.70;86.70;;;;;;5025816;28;20022;-91
2021/01/18 05:59:18;;;;;;;12.85;6.22;;;4.70;86.70;;;;;;5005719;28;20034;-91
2021/01/18 06:01:45;;;;;;;9.45;4.80;;;4.70;86.80;;;;;;5010129;28;20034;-91
2021/01/18 06:04:16;;;;;;;8.80;4.60;;;4.70;86.80;;;;;;5011140;28;20268;-90
2021/01/18 06:06:53;;;;;;;15.27;5.95;;;4.80;86.80;;;;;;5002860;28;20034;-90
2021/01/18 06:09:19;;;;;;;8.45;5.50;;;4.80;86.70;;;;;;4999937;28;20527;-91
2021/01/18 06:11:45;;;;;;;12.45;6.20;;;4.80;86.60;;;;;;5012736;28;20076;-90
2021/01/18 06:14:10;;;;;;;8.18;3.95;;;4.80;86.70;;;;;;5011830;28;20022;-89
2021/01/18 06:16:39;;;;;;;11.18;5.47;;;4.80;86.70;;;;;;5006965;28;20041;-90
2021/01/18 06:19:12;;;;;;;10.25;4.90;;;4.80;86.80;;;;;;5033870;28;20224;-91
2021/01/18 06:21:40;;;;;;;12.90;6.28;;;4.80;86.80;;;;;;5015634;28;20041;-90
2021/01/18 06:24:27;;;;;;;12.43;5.90;;;4.90;86.90;;;;;;5012872;28;20022;-90
2021/01/18 06:26:53;;;;;;;11.05;6.00;;;4.90;87.00;;;;;;5001051;28;20036;-90
2021/01/18 06:29:38;;;;;;;12.15;4.95;;;4.90;86.90;;;;;;5011302;28;20129;-90
2021/01/18 06:32:06;;;;;;;16.92;7.28;;;4.80;86.90;;;;;;4997389;28;20030;-91
2021/01/18 06:34:31;;;;;;;15.32;6.55;;;4.80;86.80;;;;;;5002579;28;20017;-90
2021/01/18 06:36:58;;;;;;;12.55;5.88;;;4.80;86.90;;;;;;5021132;28;20439;-90
2021/01/18 06:39:28;;;;;;;11.93;5.65;;;4.80;86.90;;;;;;5012690;28;20027;-90
2021/01/18 06:42:02;;;;;;;14.38;6.43;;;4.80;86.90;;;;;;5015921;28;20061;-88
2021/01/18 06:44:40;;;;;;;16.85;8.02;;;4.80;86.90;;;;;;5018634;28;20029;-91
2021/01/18 06:47:41;;;;;;;18.10;7.30;;;4.90;86.90;;;;;;5017559;28;20034;-91
2021/01/18 06:50:07;;;;;;;11.50;4.82;;;4.90;87.00;;;;;;4966943;28;20034;-90
2021/01/18 06:52:35;;;;;;;16.40;7.32;;;4.90;86.90;;;;;;5002101;28;20045;-90
2021/01/18 06:55:11;;;;;;;11.35;5.53;;;4.80;87.00;;;;;;5005000;28;20022;-90
2021/01/18 06:58:02;;;;;;;14.88;5.88;;;4.90;87.70;;;;;;5014106;28;20223;-93
2021/01/18 07:00:29;;;;;;;13.00;5.32;;;4.90;87.00;;;;;;5013814;28;20443;-96
2021/01/18 07:03:00;;;;;;;13.00;5.68;;;4.90;87.00;;;;;;5011569;28;20006;-95
2021/01/18 07:05:45;;;;;;;12.05;6.25;;;4.90;87.10;;;;;;5017192;28;20056;-93
2021/01/18 07:08:19;;;;;;;18.48;6.60;;;4.90;87.60;;;;;;4987622;28;20416;-94
2021/01/18 07:10:50;;;;;;;10.07;4.38;;;4.90;86.90;;;;;;5007125;28;20030;-92
2021/01/18 07:13:20;;;;;;;16.27;7.28;;;4.90;87.00;;;;;;5015793;28;20068;-95
2021/01/18 07:15:49;;;;;;;10.60;5.28;;;4.90;87.00;;;;;;5017044;28;20030;-91
2021/01/18 07:18:15;;;;;;;8.05;4.05;;;5.00;87.10;;;;;;5016717;28;20576;-92
2021/01/18 07:20:44;;;;;;;13.52;5.85;;;4.90;87.00;;;;;;5015344;28;20125;-93
2021/01/18 07:23:26;;;;;;;14.35;6.00;;;4.90;86.90;;;;;;5014844;28;20022;-94
2021/01/18 07:26:07;;;;;;;13.03;5.77;;;4.90;87.30;;;;;;5042050;28;20042;-92
2021/01/18 07:28:33;;;;;;;16.13;6.78;;;5.00;86.90;;;;;;5031879;28;20030;-91
2021/01/18 07:31:00;;;;;;;9.85;5.13;;;5.00;86.90;;;;;;5027877;28;20029;-89
2021/01/18 07:33:27;;;;;;;14.50;5.13;;;5.00;86.90;;;;;;5023814;28;20025;-89
2021/01/18 07:35:52;;;;;;;12.30;6.15;;;5.00;86.90;;;;;;5025977;28;20010;-87
2021/01/18 07:38:21;;;;;;;16.15;7.03;;;5.00;86.90;;;;;;5028840;28;20041;-87
2021/01/18 07:41:13;;;;;;;12.07;5.70;;;5.00;86.90;;;;;;5022754;28;20030;-90
2021/01/18 07:43:47;;;;;;;11.10;5.80;;;5.00;86.90;;;;;;5011165;28;20030;-87
2021/01/18 07:46:25;;;;;;;14.43;6.78;;;5.00;86.90;;;;;;5012728;28;20055;-94
2021/01/18 07:48:58;;;;;;;16.05;6.65;;;5.00;86.90;;;;;;5016028;28;20034;-89
2021/01/18 07:51:27;;;;;;;18.33;8.80;;;5.00;86.90;;;;;;5022617;28;20058;-89
2021/01/18 07:53:56;;;;;;;14.40;6.95;;;5.00;86.90;;;;;;5034479;28;20006;-89
2021/01/18 07:56:25;;;;;;;17.92;7.85;;;5.00;87.00;;;;;;5018141;28;20037;-90
2021/01/18 07:59:05;;;;;;;14.15;7.00;;;5.00;86.90;;;;;;5030805;28;20089;-91
2021/01/18 08:01:36;;;;;;;10.75;5.43;;;5.00;87.00;;;;;;5028503;28;20034;-89
2021/01/18 08:04:19;;;;;;;17.23;7.97;;;5.00;87.00;;;;;;5041377;28;20030;-91
2021/01/18 08:07:07;;;;;;;8.88;5.25;;;5.00;87.00;;;;;;5024838;28;20038;-91
2021/01/18 08:09:34;;;;;;;9.57;5.55;;;5.00;87.00;;;;;;5019669;28;20026;-91
2021/01/18 08:12:28;;;;;;;15.52;7.25;;;5.20;87.10;;;;;;5024711;28;20472;-93
2021/01/18 08:14:54;;;;;;;8.93;4.57;;;5.00;87.00;;;;;;5023614;28;20057;-93
2021/01/18 08:17:20;;;;;;;13.70;7.00;;;5.00;86.90;;;;;;5021318;28;20051;-91
2021/01/18 08:20:08;;;;;;;14.45;6.60;;;5.00;86.90;;;;;;5019301;28;20018;-89
2021/01/18 08:22:34;;;;;;;8.65;4.93;;;5.00;87.00;;;;;;5017010;28;20041;-90
2021/01/18 08:25:03;;;;;;;9.27;4.85;;;5.00;87.00;;;;;;5016603;28;20045;-93
2021/01/18 08:27:41;;;;;;;12.30;5.82;;;5.10;87.00;;;;;;5018230;28;20058;-92
2021/01/18 08:30:40;;;;;;;11.93;6.45;;;5.10;87.00;;;;;;5017894;28;20018;-91
2021/01/18 08:33:08;;;;;;;12.18;6.72;;;5.10;87.00;;;;;;5017129;28;20026;-92
2021/01/18 08:35:49;;;;;;;18.65;7.80;;;5.10;87.00;;;;;;5014792;28;20169;-87
2021/01/18 08:38:31;;;;;;;11.85;6.38;;;5.20;87.10;;;;;;5014859;28;20056;-89
2021/01/18 08:41:03;;;;;;;11.23;6.15;;;5.10;87.10;;;;;;5021996;28;20037;-92
2021/01/18 08:43:49;;;;;;;19.30;8.15;;;5.20;87.10;;;;;;5020004;28;20088;-90
2021/01/18 08:46:44;;;;;;;12.52;6.47;;;5.10;87.00;;;;;;5044838;28;20022;-90
2021/01/18 08:49:20;;;;;;;9.55;6.32;;;5.20;87.00;;;;;;5008936;28;20113;-90
2021/01/18 08:51:47;;;;;;;12.77;6.13;;;5.20;86.90;;;;;;5015305;28;20032;-89
2021/01/18 08:54:36;;;;;;;14.02;6.75;;;5.30;87.00;;;;;;5035569;28;20026;-92
2021/01/18 08:57:24;;;;;;;14.00;6.82;;;5.20;86.90;;;;;;5031135;28;20065;-92
2021/01/18 09:00:10;;;;;;;12.05;6.40;;;5.20;86.90;;;;;;5025822;28;20018;-92
2021/01/18 09:02:39;;;;;;;13.27;6.10;;;5.20;87.00;;;;;;5023447;28;20061;-88
2021/01/18 09:05:20;;;;;;;10.60;5.13;;;5.20;87.00;;;;;;5026068;28;20022;-92
2021/01/18 09:07:46;;;;;;;14.65;6.85;;;5.20;86.90;;;;;;5023197;28;20049;-92
2021/01/18 09:10:17;;;;;;;15.15;6.47;;;5.30;86.90;;;;;;5022818;28;20145;-92
2021/01/18 09:13:05;;;;;;;15.80;7.68;;;5.30;87.00;;;;;;5021395;28;20117;-92
2021/01/18 09:15:31;;;;;;;14.65;7.80;;;5.30;86.90;;;;;;5030811;28;20112;-91
2021/01/18 09:18:26;;;;;;;16.67;8.40;;;5.30;86.90;;;;;;5025257;28;20042;-92
2021/01/18 09:20:53;;;;;;;18.60;7.55;;;5.30;87.00;;;;;;5016397;28;20025;-92
2021/01/18 09:23:19;;;;;;;12.60;6.70;;;5.30;86.90;;;;;;5029462;28;20014;-90
2021/01/18 09:25:45;;;;;;;13.68;7.50;;;5.40;87.00;;;;;;5022204;28;20034;-92
2021/01/18 09:28:15;;;;;;;13.23;7.30;;;5.40;87.00;;;;;;5013008;28;20159;-89
2021/01/18 09:30:43;;;;;;;16.50;8.77;;;5.50;87.00;;;;;;5011247;28;20017;-91
2021/01/18 09:33:13;;;;;;;18.77;8.98;;;5.40;87.00;;;;;;5013058;28;20030;-92
2021/01/18 09:35:42;;;;;;;14.25;6.68;;;5.50;87.70;;;;;;5014031;28;20025;-90
2021/01/18 09:38:10;;;;;;;13.20;7.03;;;5.50;87.00;;;;;;5021336;28;20030;-91
2021/01/18 09:40:41;;;;;;;13.45;5.68;;;5.50;87.10;;;;;;5012136;28;20053;-91
2021/01/18 09:43:19;;;;;;;12.90;6.72;;;5.50;87.10;;;;;;5019387;28;20044;-91
2021/01/18 09:45:53;;;;;;;17.02;9.05;;;5.50;87.10;;;;;;5012093;28;20034;-94
2021/01/18 09:48:24;;;;;;;15.65;7.93;;;5.50;87.10;;;;;;5026328;28;20021;-93
2021/01/18 09:51:14;;;;;;;12.15;6.82;;;5.60;87.30;;;;;;5023409;28;20166;-94
2021/01/18 09:53:40;;;;;;;15.13;8.15;;;5.50;87.30;;;;;;5026984;28;20320;-95
2021/01/18 09:56:14;;;;;;;14.38;6.75;;;5.50;87.30;;;;;;5025784;28;20045;-93
2021/01/18 09:58:55;;;;;;;14.65;6.95;;;5.50;87.40;;;;;;4998869;28;20026;-90
2021/01/18 10:01:33;;;;;;;14.50;7.30;;;5.60;87.30;;;;;;5020344;28;20033;-91
2021/01/18 10:04:05;;;;;;;16.42;8.57;;;5.60;87.30;;;;;;5018764;28;20028;-87
2021/01/18 10:06:35;;;;;;;12.82;7.00;;;5.70;88.00;;;;;;5024307;28;20049;-93
2021/01/18 10:09:09;;;;;;;17.65;8.55;;;5.70;87.40;;;;;;5024019;28;20638;-93
2021/01/18 10:15:37;;;;;;;;;;;;;;;;;;;;;
2021/01/18 10:18:03;;;;;;;23.20;11.40;;;5.70;87.40;;;;;;4965922;28;20091;-94
2021/01/18 10:20:30;;;;;;;20.40;11.35;;;5.70;87.40;;;;;;5013568;28;20080;-93
2021/01/18 10:22:58;;;;;;;20.98;10.30;;;5.70;87.50;;;;;;5019494;28;20026;-94
2021/01/18 10:25:28;;;;;;;16.65;7.93;;;5.70;87.40;;;;;;5013702;28;20029;-91
2021/01/18 10:27:57;;;;;;;15.05;7.15;;;5.80;87.60;;;;;;5015039;28;20117;-89
2021/01/18 10:30:43;;;;;;;14.77;6.93;;;5.80;87.50;;;;;;5010703;28;20033;-89
2021/01/18 12:57:42;;;;;;;10.20;5.25;;;6.80;85.00;;;;;;4968365;28;20142;-90
2021/01/18 13:00:09;;;;;;;10.25;4.30;;;6.80;85.00;;;;;;4976872;28;20094;-93
2021/01/18 13:02:44;;;;;;;10.48;5.00;;;6.90;84.90;;;;;;4955462;28;20106;-90
2021/01/18 13:05:12;;;;;;;9.80;5.05;;;6.90;84.80;;;;;;4975955;28;20035;-92
2021/01/18 13:08:05;;;;;;;13.30;4.82;;;6.90;84.70;;;;;;4961569;28;20050;-95
2021/01/18 13:10:31;;;;;;;10.23;4.25;;;7.00;84.60;;;;;;4951587;28;20034;-92
2021/01/18 13:13:35;;;;;;;8.60;3.70;;;7.10;84.50;;;;;;4977292;28;20030;-92
2021/01/18 13:18:57;;;;;;;10.25;4.50;;;7.30;84.20;;;;;;4936917;28;20034;-89
2021/01/18 13:25:25;;;;;;;8.55;3.70;;;7.30;84.10;;;;;;4972205;28;20046;-90
2021/01/18 13:28:20;;;;;;;10.95;4.40;;;7.30;84.00;;;;;;4985214;28;20038;-90
2021/01/18 13:30:55;;;;;;;8.23;3.50;;;7.30;84.00;;;;;;4981169;28;20158;-91
2021/01/18 13:34:05;;;;;;;10.60;4.55;;;7.40;84.00;;;;;;4997144;28;20030;-93
2021/01/18 13:37:06;;;;;;;6.70;3.58;;;7.20;83.90;;;;;;4974992;28;20066;-95
2021/01/18 13:39:40;;;;;;;6.97;3.38;;;7.30;84.00;;;;;;4923079;29;20027;-93
2021/01/18 13:42:52;;;;;;;7.93;3.58;;;7.30;84.00;;;;;;4950350;28;20044;-92
2021/01/18 13:54:15;;;;;;;10.30;4.30;;;7.40;84.10;;;;;;5023003;28;20054;-91
2021/01/18 13:57:18;;;;;;;12.43;3.92;;;7.40;84.00;;;;;;5039024;28;20051;-95
2021/01/18 14:00:00;;;;;;;9.32;3.63;;;7.40;84.00;;;;;;4972179;28;20050;-93
2021/01/18 14:06:06;;;;;;;8.98;3.40;;;7.40;84.00;;;;;;5011234;28;20108;-92
2021/01/18 14:33:58;;;;;;;8.48;2.50;;;7.20;84.40;;;;;;4942294;28;20120;-92
2021/01/18 14:36:26;;;;;;;9.43;2.67;;;7.30;84.50;;;;;;4994116;28;20023;-90
2021/01/18 14:38:55;;;;;;;7.45;2.90;;;7.20;84.40;;;;;;4993469;28;20033;-90
2021/01/18 14:41:31;;;;;;;6.88;2.80;;;7.20;84.50;;;;;;4971836;28;20034;-90
2021/01/18 14:44:11;;;;;;;7.90;2.30;;;7.20;84.50;;;;;;4976620;28;20031;-93
2021/01/18 14:49:12;;;;;;;8.88;3.20;;;7.20;84.60;;;;;;5291914;22;20046;-90
2021/01/18 14:51:38;;;;;;;9.40;3.00;;;7.10;84.50;;;;;;4976909;28;20443;-90
2021/01/18 14:58:14;;;;;;;7.93;3.42;;;7.10;84.50;;;;;;5759141;22;20053;-96
2021/01/18 15:01:44;;;;;;;;;;;;;;;;;;;;;
2021/01/18 15:04:17;;;;;;;6.72;3.85;;;7.10;84.60;;;;;;4990413;28;20034;-91
2021/01/18 15:21:35;;;;;;;8.98;3.30;;;7.10;84.60;;;;;;4989480;28;20069;-95
2021/01/18 15:24:02;;;;;;;7.07;2.72;;;7.20;84.70;;;;;;4982722;28;20081;-90
2021/01/18 15:26:28;;;;;;;6.93;2.80;;;7.20;84.60;;;;;;4985321;28;20037;-89
2021/01/18 15:33:49;;;;;;;;;;;;;;;;;;;;;
2021/01/18 15:48:01;;;;;;;;;;;;;;;;;;;;;
2021/01/18 15:51:48;;;;;;;6.78;3.30;;;6.80;84.70;;;;;;4990874;28;20078;-94
2021/01/18 16:01:57;;;;;;;11.57;5.35;;;6.90;84.80;;;;;;4917822;29;20040;-93
2021/01/18 19:00:11;;;;;;;12.63;7.90;;;6.60;86.30;;;;;;5160815;22;20512;-90
2021/01/18 19:09:14;;;;;;;9.70;6.25;;;6.60;86.50;;;;;;5009817;28;20092;-88
2021/01/18 19:14:59;;;;;;;11.85;7.70;;;6.60;86.40;;;;;;5154678;22;20057;-88
2021/01/18 19:17:42;;;;;;;12.10;6.90;;;6.60;86.40;;;;;;5026523;28;20030;-88
2021/01/18 19:20:53;;;;;;;11.07;7.88;;;6.70;86.50;;;;;;5001436;28;20049;-88
2021/01/18 19:40:04;;;;;;;8.88;7.20;;;6.60;86.30;;;;;;5032380;28;20052;-88
2021/01/18 19:43:28;;;;;;;10.40;6.88;;;6.70;86.30;;;;;;5022082;28;20037;-90
2021/01/18 19:53:06;;;;;;;18.33;11.52;;;6.60;86.40;;;;;;4944655;28;20036;-85
2021/01/18 19:55:53;;;;;;;16.88;10.68;;;6.40;86.20;;;;;;5482450;22;20060;-88
2021/01/18 20:01:27;;;;;;;12.05;7.78;;;6.50;86.40;;;;;;4933980;29;20043;-89
2021/01/18 20:04:11;;;;;;;11.55;8.75;;;6.60;86.50;;;;;;4917211;29;20050;-88
2021/01/18 20:11:02;;;;;;;11.40;7.88;;;6.70;86.30;;;;;;4910942;29;20039;-88
2021/01/18 20:17:28;;;;;;;12.02;8.57;;;6.70;86.30;;;;;;4902607;29;20044;-88
2021/01/18 20:19:57;;;;;;;;;;;6.70;86.30;;;;;;4861516;29;20566;-89
2021/01/18 20:22:35;;;;;;;13.40;10.27;;;6.70;86.20;;;;;;4965657;28;19991;-89
2021/01/18 20:25:21;;;;;;;16.83;11.43;;;6.60;86.30;;;;;;4993111;28;20026;-89
2021/01/18 20:30:57;;;;;;;12.98;9.10;;;6.50;86.50;;;;;;4996825;28;20084;-91
2021/01/18 20:37:03;;;;;;;14.65;9.20;;;6.60;86.70;;;;;;4994336;28;20031;-88
2021/01/18 20:46:40;;;;;;;14.48;9.98;;;6.60;86.80;;;;;;5002440;28;20090;-89
2021/01/18 20:52:29;;;;;;;13.85;9.73;;;6.60;86.70;;;;;;5004561;28;20061;-87
2021/01/18 20:58:04;;;;;;;14.77;10.25;;;6.60;86.70;;;;;;5215173;22;20137;-89
2021/01/18 21:00:56;;;;;;;13.90;11.07;;;6.60;86.70;;;;;;5113774;22;20049;-89
2021/01/18 21:03:59;;;;;;;21.00;13.80;;;6.70;86.70;;;;;;4993829;28;20034;-88
2021/01/18 22:10:06;;;;;;;18.38;12.07;;;6.50;86.40;;;;;;4966392;28;20078;-90
2021/01/18 22:16:57;;;;;;;;;;;;;;;;;;;;;
2021/01/18 22:36:13;;;;;;;22.35;14.27;;;6.50;86.60;;;;;;5504463;23;20063;-86
2021/01/18 22:38:43;;;;;;;17.15;12.45;;;6.40;86.50;;;;;;5048017;28;20017;-87
2021/01/18 22:41:09;;;;;;;17.88;11.48;;;6.40;86.50;;;;;;5051737;28;20301;-86
2021/01/18 22:43:35;;;;;;;14.68;9.70;;;6.40;86.50;;;;;;5032708;28;20037;-90
2021/01/18 22:46:01;;;;;;;18.52;12.68;;;6.50;86.60;;;;;;5035687;28;20384;-83
2021/01/18 22:48:31;;;;;;;19.35;15.32;;;6.50;86.60;;;;;;5014298;28;20033;-85
2021/01/18 22:50:59;;;;;;;13.27;10.00;;;6.50;86.70;;;;;;5002529;28;20037;-86
2021/01/18 22:53:25;;;;;;;13.50;9.30;;;6.50;86.60;;;;;;5014291;28;20025;-86
2021/01/18 22:55:51;;;;;;;16.83;10.68;;;6.60;86.60;;;;;;5016953;28;20025;-87